createdAt,value
2018-06-12T00:01:51.320Z,17.18
2018-06-12T00:02:51.328Z,17.22
2018-06-12T00:03:51.314Z,17.09
2018-06-12T00:04:52.813Z,17.09
2018-06-12T00:05:51.825Z,17.21
2018-06-12T00:06:51.815Z,17.20
2018-06-12T00:07:51.815Z,17.17
2018-06-12T00:09:15.315Z,17.14
2018-06-12T00:09:52.315Z,17.14
2018-06-12T00:10:52.315Z,17.27
2018-06-12T00:11:52.313Z,17.09
2018-06-12T00:12:52.815Z,17.27
2018-06-12T00:13:52.814Z,17.22
2018-06-12T00:14:52.815Z,17.28
2018-06-12T00:15:52.814Z,17.27
2018-06-12T00:17:15.747Z,17.27
2018-06-12T00:17:53.314Z,17.28
2018-06-12T00:18:53.314Z,17.24
2018-06-12T00:19:53.315Z,17.35
2018-06-12T00:20:53.813Z,17.25
2018-06-12T00:21:53.040Z,17.22
2018-06-12T00:22:53.820Z,17.22
2018-06-12T00:23:53.816Z,17.21
2018-06-12T00:24:54.317Z,17.12
2018-06-12T00:25:54.319Z,17.22
2018-06-12T00:26:54.316Z,17.10
2018-06-12T00:27:54.315Z,17.22
2018-06-12T00:28:54.814Z,17.25
2018-06-12T00:29:54.815Z,17.12
2018-06-12T00:30:54.849Z,17.22
2018-06-12T00:31:54.285Z,17.12
2018-06-12T00:32:54.380Z,17.24
2018-06-12T00:33:55.316Z,17.07
2018-06-12T00:34:55.315Z,17.09
2018-06-12T00:35:55.316Z,17.12
2018-06-12T00:36:55.323Z,17.17
2018-06-12T00:37:55.816Z,17.18
2018-06-12T00:38:55.044Z,17.22
2018-06-12T00:39:55.815Z,17.12
2018-06-12T00:40:55.815Z,17.09
2018-06-12T00:41:56.313Z,17.14
2018-06-12T00:42:55.540Z,17.12
2018-06-12T00:43:56.315Z,17.12
2018-06-12T00:44:56.315Z,17.14
2018-06-12T00:45:56.817Z,17.17
2018-06-12T00:46:57.748Z,17.12
2018-06-12T00:49:27.594Z,17.14
2018-06-12T00:50:28.322Z,17.17
2018-06-12T00:51:28.324Z,17.15
2018-06-12T00:52:28.823Z,17.20
2018-06-12T00:53:28.823Z,17.21
2018-06-12T00:54:28.822Z,17.14
2018-06-12T00:55:28.829Z,17.09
2018-06-12T00:56:29.323Z,17.12
2018-06-12T00:57:29.323Z,17.25
2018-06-12T00:58:29.323Z,17.27
2018-06-12T00:59:29.323Z,17.28
2018-06-12T01:00:50.822Z,17.18
2018-06-12T01:01:29.832Z,17.28
2018-06-12T01:02:29.823Z,17.32
2018-06-12T01:03:29.823Z,17.33
2018-06-12T01:04:30.330Z,17.32
2018-06-12T01:05:30.323Z,17.27
2018-06-12T01:06:30.322Z,17.36
2018-06-12T01:07:29.807Z,17.28
2018-06-12T01:08:30.823Z,17.30
2018-06-12T01:09:30.829Z,17.32
2018-06-12T01:10:30.173Z,17.20
2018-06-12T01:11:30.826Z,17.30
2018-06-12T01:12:31.323Z,17.30
2018-06-12T01:13:30.548Z,17.21
2018-06-12T01:14:31.365Z,17.12
2018-06-12T01:15:31.328Z,17.22
2018-06-12T01:16:31.331Z,17.07
2018-06-12T01:17:31.823Z,17.09
2018-06-12T01:18:31.823Z,17.10
2018-06-12T01:19:31.823Z,17.15
2018-06-12T01:20:31.823Z,17.18
2018-06-12T01:21:38.324Z,17.12
2018-06-12T01:22:32.325Z,17.14
2018-06-12T01:23:32.324Z,17.12
2018-06-12T01:24:32.324Z,17.15
2018-06-12T01:25:32.833Z,17.17
2018-06-12T01:26:32.077Z,17.14
2018-06-12T01:27:32.824Z,17.14
2018-06-12T01:28:32.827Z,17.17
2018-06-12T01:29:33.323Z,17.10
2018-06-12T01:30:34.321Z,17.07
2018-06-12T01:31:33.327Z,17.20
2018-06-12T01:32:33.329Z,17.17
2018-06-12T01:33:39.823Z,17.12
2018-06-12T01:36:32.706Z,17.15
2018-06-12T01:37:26.700Z,17.17
2018-06-12T01:38:07.134Z,17.06
2018-06-12T01:39:05.703Z,17.03
2018-06-12T01:40:06.202Z,17.03
2018-06-12T01:41:12.201Z,17.05
2018-06-12T01:42:06.202Z,17.07
2018-06-12T01:43:06.200Z,16.99
2018-06-12T01:44:06.705Z,17.06
2018-06-12T01:45:06.700Z,17.03
2018-06-12T01:46:06.703Z,17.06
2018-06-12T01:47:08.635Z,17.06
2018-06-12T01:48:09.634Z,17.02
2018-06-12T01:49:08.697Z,16.92
2018-06-12T01:50:08.635Z,16.95
2018-06-12T01:51:07.202Z,17.00
2018-06-12T01:53:42.389Z,16.95
2018-06-12T01:54:39.895Z,16.96
2018-06-12T01:55:38.955Z,16.87
2018-06-12T01:56:38.431Z,16.91
2018-06-12T01:58:01.453Z,16.91
2018-06-12T01:58:39.461Z,16.90
2018-06-12T01:59:41.456Z,16.87
2018-06-12T02:00:41.455Z,16.82
2018-06-12T02:01:39.055Z,16.87
2018-06-12T02:02:39.959Z,16.85
2018-06-12T02:03:39.955Z,16.82
2018-06-12T02:04:39.973Z,16.80
2018-06-12T02:05:45.888Z,16.80
2018-06-12T02:06:42.389Z,16.82
2018-06-12T02:07:40.456Z,16.81
2018-06-12T02:08:40.453Z,16.85
2018-06-12T02:09:40.955Z,16.87
2018-06-12T02:10:54.956Z,16.80
2018-06-12T02:11:40.956Z,16.82
2018-06-12T02:12:40.956Z,16.82
2018-06-12T02:13:41.455Z,16.77
2018-06-12T02:14:41.456Z,16.87
2018-06-12T02:15:41.456Z,16.82
2018-06-12T02:16:42.388Z,16.84
2018-06-12T02:17:41.956Z,16.81
2018-06-12T02:18:55.954Z,16.81
2018-06-12T02:19:41.311Z,16.80
2018-06-12T02:20:41.956Z,16.87
2018-06-12T02:21:42.454Z,16.81
2018-06-12T02:22:43.929Z,16.72
2018-06-12T02:23:41.790Z,16.69
2018-06-12T02:24:42.457Z,16.67
2018-06-12T02:25:42.456Z,16.73
2018-06-12T02:26:42.956Z,16.66
2018-06-12T02:27:42.186Z,16.69
2018-06-12T02:28:42.952Z,16.66
2018-06-12T02:29:42.954Z,16.73
2018-06-12T02:30:42.551Z,16.78
2018-06-12T02:31:43.455Z,16.67
2018-06-12T02:32:43.456Z,16.80
2018-06-12T02:33:42.930Z,16.72
2018-06-12T02:35:04.030Z,16.73
2018-06-12T02:35:43.959Z,16.67
2018-06-12T02:36:47.887Z,16.67
2018-06-12T02:37:43.963Z,16.66
2018-06-12T02:38:43.954Z,16.72
2018-06-12T02:39:44.459Z,16.69
2018-06-12T02:41:11.464Z,16.72
2018-06-12T02:41:44.456Z,16.75
2018-06-12T02:42:44.459Z,16.66
2018-06-12T02:43:44.974Z,16.70
2018-06-12T02:44:44.200Z,16.78
2018-06-12T02:45:44.956Z,16.73
2018-06-12T02:47:06.456Z,16.67
2018-06-12T02:47:45.455Z,16.72
2018-06-12T02:48:45.455Z,16.66
2018-06-12T02:49:45.453Z,16.69
2018-06-12T02:50:45.458Z,16.67
2018-06-12T02:51:45.955Z,16.66
2018-06-12T02:52:45.955Z,16.75
2018-06-12T02:53:45.956Z,16.66
2018-06-12T02:54:45.967Z,16.66
2018-06-12T02:56:07.459Z,16.63
2018-06-12T02:57:07.456Z,16.55
2018-06-12T02:58:07.463Z,16.66
2018-06-12T02:58:46.455Z,16.65
2018-06-12T03:01:18.207Z,16.66
2018-06-12T03:02:18.217Z,16.62
2018-06-12T03:03:18.221Z,16.57
2018-06-12T03:04:24.717Z,16.60
2018-06-12T03:05:39.717Z,16.50
2018-06-12T03:06:39.084Z,16.48
2018-06-12T03:07:39.717Z,16.45
2018-06-12T03:08:19.216Z,16.40
2018-06-12T03:09:19.214Z,16.37
2018-06-12T03:10:19.216Z,16.36
2018-06-12T03:11:19.221Z,16.37
2018-06-12T03:12:19.721Z,16.33
2018-06-12T03:13:40.717Z,16.33
2018-06-12T03:14:19.070Z,16.26
2018-06-12T03:15:40.722Z,16.33
2018-06-12T03:16:21.215Z,16.34
2018-06-12T03:17:20.218Z,16.37
2018-06-12T03:18:20.225Z,16.36
2018-06-12T03:19:20.223Z,16.37
2018-06-12T03:20:20.717Z,16.48
2018-06-12T03:21:41.720Z,16.40
2018-06-12T03:22:20.068Z,16.41
2018-06-12T03:23:20.735Z,16.44
2018-06-12T03:24:36.693Z,16.50
2018-06-12T03:25:22.196Z,16.51
2018-06-12T03:26:21.217Z,16.52
2018-06-12T03:27:21.216Z,16.45
2018-06-12T03:28:42.725Z,16.50
2018-06-12T03:29:42.716Z,16.52
2018-06-12T03:30:42.684Z,16.45
2018-06-12T03:31:21.717Z,16.47
2018-06-12T03:32:22.213Z,16.51
2018-06-12T03:33:43.212Z,16.52
2018-06-12T03:34:22.221Z,16.45
2018-06-12T03:35:21.695Z,16.51
2018-06-12T03:36:43.717Z,16.54
2018-06-12T03:37:22.719Z,16.54
2018-06-12T03:38:22.725Z,16.54
2018-06-12T03:39:22.717Z,16.51
2018-06-12T03:40:44.257Z,16.57
2018-06-12T03:41:23.218Z,16.55
2018-06-12T03:42:23.217Z,16.55
2018-06-12T03:43:23.222Z,16.60
2018-06-12T03:44:44.718Z,16.54
2018-06-12T03:45:43.923Z,16.67
2018-06-12T03:46:44.717Z,16.59
2018-06-12T03:47:23.717Z,16.63
2018-06-12T03:48:50.151Z,16.66
2018-06-12T03:49:24.220Z,16.62
2018-06-12T03:50:44.440Z,16.65
2018-06-12T03:51:24.216Z,16.62
2018-06-12T03:52:24.220Z,16.57
2018-06-12T03:53:24.716Z,16.62
2018-06-12T03:54:24.718Z,16.55
2018-06-12T03:55:24.717Z,16.57
2018-06-12T03:56:25.217Z,16.54
2018-06-12T03:57:46.219Z,16.57
2018-06-12T03:58:25.221Z,16.63
2018-06-12T03:59:25.220Z,16.55
2018-06-12T04:00:46.217Z,16.59
2018-06-12T04:01:31.717Z,16.66
2018-06-12T04:02:25.716Z,16.57
2018-06-12T04:03:25.067Z,16.54
2018-06-12T04:04:25.166Z,16.50
2018-06-12T04:05:25.273Z,16.47
2018-06-12T04:06:26.218Z,16.51
2018-06-12T04:07:26.217Z,16.52
2018-06-12T04:08:26.261Z,16.57
2018-06-12T04:09:26.285Z,16.48
2018-06-12T04:10:26.717Z,16.50
2018-06-12T04:11:26.717Z,16.47
2018-06-12T04:12:26.719Z,16.47
2018-06-12T04:13:26.718Z,16.40
2018-06-12T04:14:27.259Z,16.41
2018-06-12T04:17:12.597Z,16.37
2018-06-12T04:17:58.594Z,16.40
2018-06-12T04:20:32.304Z,16.37
2018-06-12T04:21:30.301Z,16.29
2018-06-12T04:22:51.308Z,16.33
2018-06-12T04:23:51.796Z,16.34
2018-06-12T04:24:30.795Z,16.37
2018-06-12T04:25:30.796Z,16.33
2018-06-12T04:26:30.796Z,16.37
2018-06-12T04:27:37.295Z,16.34
2018-06-12T04:28:31.297Z,16.36
2018-06-12T04:29:31.296Z,16.34
2018-06-12T04:30:31.297Z,16.37
2018-06-12T04:31:31.796Z,16.30
2018-06-12T04:32:34.227Z,16.37
2018-06-12T04:33:31.795Z,16.30
2018-06-12T04:34:31.795Z,16.42
2018-06-12T04:35:53.296Z,16.36
2018-06-12T04:36:38.302Z,16.42
2018-06-12T04:37:53.292Z,16.40
2018-06-12T04:38:32.302Z,16.32
2018-06-12T04:39:33.727Z,16.36
2018-06-12T04:40:53.799Z,16.36
2018-06-12T04:41:33.728Z,16.40
2018-06-12T04:42:32.796Z,16.41
2018-06-12T04:43:54.295Z,16.33
2018-06-12T04:44:54.295Z,16.40
2018-06-12T04:45:33.297Z,16.48
2018-06-12T04:46:33.296Z,16.47
2018-06-12T04:47:54.796Z,16.48
2018-06-12T04:48:33.796Z,16.40
2018-06-12T04:49:33.796Z,16.45
2018-06-12T04:50:33.796Z,16.44
2018-06-12T04:51:36.293Z,16.59
2018-06-12T04:52:34.296Z,16.50
2018-06-12T04:53:55.301Z,16.52
2018-06-12T04:54:34.345Z,16.50
2018-06-12T04:55:34.796Z,16.50
2018-06-12T04:56:40.796Z,16.55
2018-06-12T04:57:34.794Z,16.54
2018-06-12T04:58:34.806Z,16.54
2018-06-12T04:59:35.298Z,16.51
2018-06-12T05:00:58.295Z,16.65
2018-06-12T05:01:35.299Z,16.67
2018-06-12T05:02:35.298Z,16.63
2018-06-12T05:03:35.797Z,16.66
2018-06-12T05:04:56.006Z,16.84
2018-06-12T05:05:35.796Z,16.78
2018-06-12T05:06:35.797Z,16.70
2018-06-12T05:07:36.309Z,16.72
2018-06-12T05:08:36.297Z,16.72
2018-06-12T05:09:36.296Z,16.55
2018-06-12T05:10:36.351Z,16.57
2018-06-12T05:11:36.808Z,16.57
2018-06-12T05:12:57.023Z,16.54
2018-06-12T05:15:29.767Z,16.65
2018-06-12T05:16:07.870Z,17.70
2018-06-12T05:17:29.783Z,19.07
2018-06-12T05:18:08.131Z,20.16
2018-06-12T05:19:08.777Z,20.98
2018-06-12T05:20:36.775Z,21.48
2018-06-12T05:21:09.275Z,21.42
2018-06-12T05:22:09.274Z,21.00
2018-06-12T05:23:09.278Z,21.31
2018-06-12T05:24:29.851Z,21.22
2018-06-12T05:25:11.207Z,21.16
2018-06-12T05:26:09.775Z,21.03
2018-06-12T05:27:09.831Z,20.72
2018-06-12T05:28:16.277Z,20.42
2018-06-12T05:29:31.275Z,20.05
2018-06-12T05:30:10.273Z,19.68
2018-06-12T05:31:09.767Z,19.31
2018-06-12T05:32:24.776Z,19.05
2018-06-12T05:33:16.210Z,18.83
2018-06-12T05:34:31.780Z,18.50
2018-06-12T05:35:16.775Z,18.28
2018-06-12T05:36:17.278Z,17.99
2018-06-12T05:37:34.276Z,17.87
2018-06-12T05:38:13.279Z,17.81
2018-06-12T05:39:11.275Z,17.66
2018-06-12T05:40:31.857Z,17.55
2018-06-12T05:41:31.940Z,17.47
2018-06-12T05:42:32.777Z,17.47
2018-06-12T05:43:15.248Z,17.49
2018-06-12T05:44:11.781Z,17.36
2018-06-12T05:45:14.274Z,17.38
2018-06-12T05:46:12.276Z,17.27
2018-06-12T05:48:43.789Z,17.40
2018-06-12T05:49:43.800Z,17.47
2018-06-12T05:50:43.270Z,17.49
2018-06-12T05:53:17.516Z,17.54
2018-06-12T05:54:22.522Z,17.57
2018-06-12T05:55:18.523Z,17.58
2018-06-12T05:56:16.031Z,17.55
2018-06-12T05:57:17.475Z,17.57
2018-06-12T05:58:16.024Z,17.47
2018-06-12T05:59:43.029Z,17.35
2018-06-12T06:00:17.456Z,17.40
2018-06-12T06:01:16.463Z,17.32
2018-06-12T06:02:15.715Z,17.27
2018-06-12T06:03:16.533Z,17.30
2018-06-12T06:05:48.055Z,17.28
2018-06-12T06:07:02.062Z,17.24
2018-06-12T06:07:50.991Z,17.20
2018-06-12T06:10:19.094Z,17.10
2018-06-12T06:11:19.847Z,17.07
2018-06-12T06:12:19.821Z,17.07
2018-06-12T06:13:20.321Z,17.20
2018-06-12T06:14:20.321Z,17.27
2018-06-12T06:15:41.321Z,17.43
2018-06-12T06:16:20.321Z,17.35
2018-06-12T06:17:41.824Z,17.47
2018-06-12T06:18:25.796Z,17.54
2018-06-12T06:19:20.822Z,17.55
2018-06-12T06:20:41.821Z,17.58
2018-06-12T06:21:21.332Z,17.63
2018-06-12T06:23:52.716Z,17.73
2018-06-12T06:24:52.059Z,17.71
2018-06-12T06:25:52.721Z,17.73
2018-06-12T06:26:52.341Z,17.70
2018-06-12T06:27:54.155Z,17.57
2018-06-12T06:29:07.229Z,17.53
2018-06-12T06:29:55.221Z,17.46
2018-06-12T06:30:53.220Z,17.47
2018-06-12T06:31:53.720Z,17.45
2018-06-12T06:34:39.134Z,17.28
2018-06-12T06:36:57.129Z,17.24
2018-06-12T06:37:57.132Z,17.15
2018-06-12T06:38:57.134Z,17.14
2018-06-12T06:40:20.635Z,17.15
2018-06-12T06:42:50.012Z,17.02
2018-06-12T06:43:29.020Z,17.02
2018-06-12T06:44:30.950Z,16.99
2018-06-12T06:45:29.519Z,16.96
2018-06-12T06:46:29.532Z,17.03
2018-06-12T06:47:29.517Z,17.02
2018-06-12T06:48:29.514Z,17.02
2018-06-12T06:49:29.136Z,16.99
2018-06-12T06:50:30.019Z,16.99
2018-06-12T06:51:32.018Z,17.05
2018-06-12T06:52:29.494Z,17.03
2018-06-12T06:53:29.596Z,16.99
2018-06-12T06:54:52.977Z,16.96
2018-06-12T06:55:52.490Z,17.06
2018-06-12T06:56:50.949Z,17.03
2018-06-12T06:57:32.450Z,17.05
2018-06-12T06:58:51.208Z,17.09
2018-06-12T06:59:31.024Z,16.98
2018-06-12T07:00:32.450Z,17.09
2018-06-12T07:01:31.019Z,17.12
2018-06-12T07:02:31.516Z,17.09
2018-06-12T07:03:51.721Z,17.12
2018-06-12T07:04:42.947Z,17.25
2018-06-12T07:05:30.987Z,17.24
2018-06-12T07:06:32.034Z,17.35
2018-06-12T07:07:34.948Z,17.38
2018-06-12T07:08:33.949Z,17.30
2018-06-12T07:09:53.020Z,17.40
2018-06-12T07:10:32.030Z,17.49
2018-06-12T07:11:34.513Z,17.43
2018-06-12T07:14:17.893Z,17.32
2018-06-12T07:15:03.972Z,17.28
2018-06-12T07:16:03.906Z,17.30
2018-06-12T07:17:04.399Z,17.32
2018-06-12T07:18:03.651Z,17.35
2018-06-12T07:19:04.398Z,17.27
2018-06-12T07:20:03.872Z,17.32
2018-06-12T07:21:18.899Z,17.20
2018-06-12T07:22:04.131Z,17.22
2018-06-12T07:23:10.898Z,17.18
2018-06-12T07:24:04.901Z,17.18
2018-06-12T07:25:04.502Z,17.06
2018-06-12T07:27:39.247Z,16.88
2018-06-12T07:28:37.252Z,16.90
2018-06-12T07:29:40.684Z,16.88
2018-06-12T07:30:37.253Z,16.88
2018-06-12T07:31:57.832Z,16.82
2018-06-12T07:32:37.750Z,16.87
2018-06-12T07:33:37.118Z,16.67
2018-06-12T07:34:39.184Z,16.65
2018-06-12T07:35:58.327Z,16.70
2018-06-12T07:36:38.259Z,16.66
2018-06-12T07:37:37.516Z,16.85
2018-06-12T07:38:38.252Z,16.84
2018-06-12T07:39:38.253Z,16.91
2018-06-12T07:40:59.753Z,16.85
2018-06-12T07:41:38.753Z,16.91
2018-06-12T07:42:38.752Z,16.88
2018-06-12T07:43:38.748Z,16.99
2018-06-12T07:44:39.252Z,16.95
2018-06-12T07:45:39.253Z,17.03
2018-06-12T07:46:38.618Z,17.02
2018-06-12T07:47:39.269Z,17.17
2018-06-12T07:48:39.753Z,17.15
2018-06-12T07:49:41.757Z,17.27
2018-06-12T07:50:41.754Z,17.25
2018-06-12T07:54:13.492Z,17.42
2018-06-12T07:55:34.500Z,17.51
2018-06-12T07:56:31.960Z,17.60
2018-06-12T08:00:18.092Z,17.68
2018-06-12T08:01:17.575Z,17.68
2018-06-12T08:02:17.529Z,17.70
2018-06-12T08:03:16.598Z,17.76
2018-06-12T08:05:53.965Z,17.74
2018-06-12T08:06:47.977Z,17.79
2018-06-12T08:07:47.979Z,17.87
2018-06-12T08:08:48.478Z,17.83
2018-06-12T08:10:02.486Z,17.70
2018-06-12T08:10:48.476Z,17.80
2018-06-12T08:11:48.477Z,17.79
2018-06-12T08:13:10.054Z,17.71
2018-06-12T08:14:09.978Z,17.65
2018-06-12T08:14:54.976Z,17.65
2018-06-12T08:15:48.977Z,17.71
2018-06-12T08:16:49.505Z,17.66
2018-06-12T08:17:48.733Z,17.71
2018-06-12T08:19:10.483Z,17.68
2018-06-12T08:19:49.479Z,17.68
2018-06-12T08:20:49.086Z,17.74
2018-06-12T08:21:49.979Z,17.74
2018-06-12T08:22:49.985Z,17.76
2018-06-12T08:24:10.985Z,17.79
2018-06-12T08:26:21.721Z,17.83
2018-06-12T08:27:42.052Z,17.91
2018-06-12T08:28:42.728Z,17.98
2018-06-12T08:29:22.246Z,17.99
2018-06-12T08:30:49.268Z,18.10
2018-06-12T08:31:42.431Z,18.17
2018-06-12T08:32:22.229Z,18.36
2018-06-12T08:33:22.228Z,18.36
2018-06-12T08:34:43.725Z,18.49
2018-06-12T08:35:43.731Z,18.56
2018-06-12T08:37:55.162Z,18.71
2018-06-12T08:38:54.232Z,18.69
2018-06-12T08:39:54.360Z,18.66
2018-06-12T08:42:25.931Z,18.72
2018-06-12T08:43:39.939Z,18.72
2018-06-12T08:44:25.943Z,18.79
2018-06-12T08:46:57.730Z,18.83
2018-06-12T08:47:57.072Z,19.05
2018-06-12T08:48:57.731Z,19.21
2018-06-12T08:49:58.233Z,19.32
2018-06-12T08:51:04.231Z,19.49
2018-06-12T08:53:29.736Z,19.83
2018-06-12T08:54:31.747Z,20.01
2018-06-12T08:55:29.742Z,20.19
2018-06-12T08:56:30.236Z,20.31
2018-06-12T08:57:29.463Z,20.30
2018-06-12T08:58:29.561Z,20.30
2018-06-12T08:59:29.664Z,20.76
2018-06-12T09:00:46.192Z,20.68
2018-06-12T09:01:29.941Z,20.96
2018-06-12T09:02:30.737Z,21.01
2018-06-12T09:03:32.210Z,21.16
2018-06-12T09:04:30.799Z,21.11
2018-06-12T09:05:30.288Z,20.88
2018-06-12T09:06:53.688Z,20.78
2018-06-12T09:10:33.317Z,20.54
2018-06-12T09:11:34.065Z,20.64
2018-06-12T09:12:55.064Z,20.81
2018-06-12T09:13:34.565Z,21.43
2018-06-12T09:14:54.770Z,21.58
2018-06-12T09:17:12.036Z,21.55
2018-06-12T09:18:07.505Z,21.53
2018-06-12T09:19:27.032Z,21.51
2018-06-12T09:20:06.535Z,21.28
2018-06-12T09:21:27.533Z,21.11
2018-06-12T09:22:27.540Z,21.13
2018-06-12T09:23:07.965Z,20.97
2018-06-12T09:24:28.037Z,20.88
2018-06-12T09:25:28.033Z,21.03
2018-06-12T09:26:07.031Z,21.36
2018-06-12T09:27:08.465Z,21.34
2018-06-12T09:28:13.533Z,21.18
2018-06-12T09:29:13.532Z,20.88
2018-06-12T09:30:07.533Z,20.71
2018-06-12T09:31:28.537Z,20.83
2018-06-12T09:34:00.311Z,20.63
2018-06-12T09:34:39.308Z,20.63
2018-06-12T09:35:39.418Z,20.63
2018-06-12T09:36:38.902Z,20.41
2018-06-12T09:37:39.808Z,20.27
2018-06-12T09:40:32.318Z,20.27
2018-06-12T09:41:12.315Z,20.25
2018-06-12T09:42:12.857Z,20.26
2018-06-12T09:45:03.311Z,20.02
2018-06-12T09:45:43.073Z,20.16
2018-06-12T09:47:04.074Z,20.12
2018-06-12T09:48:03.666Z,19.98
2018-06-12T09:49:03.810Z,19.95
2018-06-12T09:49:43.571Z,20.04
2018-06-12T09:50:43.574Z,19.97
2018-06-12T09:51:43.074Z,20.02
2018-06-12T09:52:45.014Z,20.25
2018-06-12T09:53:44.079Z,20.34
2018-06-12T09:55:04.291Z,20.42
2018-06-12T09:55:44.077Z,20.42
2018-06-12T09:56:44.074Z,20.42
2018-06-12T09:57:43.704Z,20.53
2018-06-12T09:58:44.507Z,20.42
2018-06-12T09:59:46.006Z,20.38
2018-06-12T10:02:16.700Z,20.19
2018-06-12T10:03:16.709Z,20.20
2018-06-12T10:04:24.141Z,20.34
2018-06-12T10:06:49.889Z,20.42
2018-06-12T10:07:47.796Z,20.41
2018-06-12T10:08:51.460Z,20.26
2018-06-12T10:10:10.955Z,20.22
2018-06-12T10:10:48.957Z,20.26
2018-06-12T10:12:02.954Z,20.08
2018-06-12T10:12:48.956Z,20.08
2018-06-12T10:13:55.454Z,20.08
2018-06-12T10:16:20.834Z,20.42
2018-06-12T10:17:34.841Z,20.42
2018-06-12T10:18:20.841Z,20.57
2018-06-12T10:19:21.341Z,20.50
2018-06-12T10:20:21.343Z,20.54
2018-06-12T10:21:21.341Z,20.56
2018-06-12T10:22:20.816Z,20.44
2018-06-12T10:23:20.919Z,20.40
2018-06-12T10:24:21.843Z,20.38
2018-06-12T10:25:35.860Z,20.42
2018-06-12T10:26:21.213Z,20.38
2018-06-12T10:27:21.844Z,20.41
2018-06-12T10:28:21.441Z,20.61
2018-06-12T10:29:22.341Z,20.71
2018-06-12T10:30:36.343Z,20.66
2018-06-12T10:31:22.346Z,20.81
2018-06-12T10:32:45.841Z,20.75
2018-06-12T10:33:25.775Z,20.66
2018-06-12T10:34:43.845Z,20.73
2018-06-12T10:35:22.841Z,20.61
2018-06-12T10:36:22.449Z,20.66
2018-06-12T10:37:37.354Z,20.72
2018-06-12T10:38:43.667Z,20.72
2018-06-12T10:39:22.772Z,20.69
2018-06-12T10:45:03.873Z,21.36
2018-06-12T10:45:57.880Z,21.99
2018-06-12T10:46:57.881Z,22.66
2018-06-12T10:48:19.386Z,22.64
2018-06-12T10:48:57.633Z,22.54
2018-06-12T10:50:04.401Z,22.56
2018-06-12T10:50:58.382Z,22.23
2018-06-12T10:52:07.812Z,22.08
2018-06-12T10:52:58.882Z,21.73
2018-06-12T10:54:01.816Z,21.58
2018-06-12T10:54:58.882Z,21.53
2018-06-12T10:56:00.332Z,21.82
2018-06-12T10:57:24.852Z,21.83
2018-06-12T10:58:13.379Z,22.05
2018-06-12T10:59:20.385Z,22.08
2018-06-12T11:00:13.391Z,22.05
2018-06-12T11:01:13.879Z,22.06
2018-06-12T11:02:13.882Z,22.15
2018-06-12T11:02:59.234Z,22.20
2018-06-12T11:04:01.356Z,22.15
2018-06-12T11:05:21.387Z,21.93
2018-06-12T11:06:15.378Z,21.75
2018-06-12T11:07:00.382Z,21.59
2018-06-12T11:08:21.386Z,21.70
2018-06-12T11:10:32.125Z,21.55
2018-06-12T11:11:32.146Z,21.46
2018-06-12T11:12:53.636Z,21.56
2018-06-12T11:13:32.636Z,21.59
2018-06-12T11:14:32.658Z,21.59
2018-06-12T11:17:40.357Z,21.83
2018-06-12T11:18:40.366Z,21.63
2018-06-12T11:19:40.366Z,21.56
2018-06-12T11:22:12.119Z,21.28
2018-06-12T11:23:12.127Z,21.27
2018-06-12T11:25:43.828Z,21.36
2018-06-12T11:27:04.764Z,21.19
2018-06-12T11:27:43.240Z,21.13
2018-06-12T11:30:35.809Z,21.05
2018-06-12T11:32:47.057Z,21.01
2018-06-12T11:33:47.067Z,22.31
2018-06-12T11:38:05.409Z,22.06
2018-06-12T11:39:20.402Z,22.01
2018-06-12T11:40:22.406Z,21.82
2018-06-12T11:41:20.407Z,21.58
2018-06-12T11:42:21.876Z,21.33
2018-06-12T11:42:59.919Z,21.09
2018-06-12T11:43:59.919Z,20.83
2018-06-12T11:44:59.905Z,20.73
2018-06-12T11:46:14.404Z,20.71
2018-06-12T11:46:59.632Z,20.63
2018-06-12T11:49:31.889Z,20.46
2018-06-12T11:50:31.896Z,20.44
2018-06-12T11:51:31.897Z,20.41
2018-06-12T11:52:32.463Z,20.30
2018-06-12T11:53:32.396Z,20.35
2018-06-12T11:54:33.335Z,20.31
2018-06-12T11:55:32.435Z,20.17
2018-06-12T11:56:32.401Z,20.16
2018-06-12T11:57:32.391Z,20.25
2018-06-12T11:58:32.893Z,20.10
2018-06-12T11:59:32.897Z,20.04
2018-06-12T12:00:53.901Z,20.05
2018-06-12T12:01:32.372Z,20.12
2018-06-12T12:02:47.397Z,19.97
2018-06-12T12:03:32.637Z,19.89
2018-06-12T12:04:33.397Z,19.90
2018-06-12T12:05:54.397Z,19.95
2018-06-12T12:06:54.894Z,19.87
2018-06-12T12:07:33.898Z,19.79
2018-06-12T12:08:33.900Z,19.61
2018-06-12T12:09:54.896Z,19.62
2018-06-12T12:10:34.401Z,19.55
2018-06-12T12:11:34.397Z,19.62
2018-06-12T12:12:34.396Z,19.62
2018-06-12T12:13:34.396Z,19.61
2018-06-12T12:14:34.896Z,19.68
2018-06-12T12:15:55.896Z,19.71
2018-06-12T12:16:36.328Z,19.61
2018-06-12T12:17:34.898Z,19.70
2018-06-12T12:18:49.396Z,19.75
2018-06-12T12:19:35.399Z,19.85
2018-06-12T12:20:35.403Z,19.80
2018-06-12T12:21:35.397Z,19.98
2018-06-12T12:22:41.934Z,19.86
2018-06-12T12:23:57.895Z,19.86
2018-06-12T12:24:49.899Z,19.89
2018-06-12T12:25:35.897Z,19.89
2018-06-12T12:26:38.397Z,20.12
2018-06-12T12:27:36.399Z,20.17
2018-06-12T12:28:36.449Z,20.22
2018-06-12T12:29:35.881Z,20.42
2018-06-12T12:30:36.913Z,20.60
2018-06-12T12:31:38.900Z,20.69
2018-06-12T12:32:57.896Z,20.87
2018-06-12T12:33:36.897Z,21.01
2018-06-12T12:34:43.397Z,21.11
2018-06-12T12:36:04.397Z,21.24
2018-06-12T12:38:08.911Z,21.36
2018-06-12T12:39:08.916Z,21.38
2018-06-12T12:40:08.911Z,21.49
2018-06-12T12:41:32.409Z,21.51
2018-06-12T12:43:40.843Z,21.55
2018-06-12T12:44:40.154Z,21.66
2018-06-12T12:45:40.804Z,21.73
2018-06-12T12:48:36.017Z,21.98
2018-06-12T12:49:12.045Z,22.15
2018-06-12T12:51:44.810Z,22.14
2018-06-12T12:52:44.808Z,22.11
2018-06-12T12:55:16.437Z,22.29
2018-06-12T12:56:40.377Z,22.33
2018-06-12T12:57:16.445Z,22.36
2018-06-12T12:58:16.944Z,22.31
2018-06-12T13:02:21.069Z,22.35
2018-06-12T13:04:52.572Z,22.66
2018-06-12T13:05:52.582Z,22.74
2018-06-12T13:06:52.575Z,22.75
2018-06-12T13:07:53.080Z,22.78
2018-06-12T13:08:53.076Z,22.85
2018-06-12T13:09:53.077Z,22.60
2018-06-12T13:10:53.075Z,22.66
2018-06-12T13:11:53.574Z,22.56
2018-06-12T13:12:53.573Z,22.52
2018-06-12T13:13:53.620Z,22.42
2018-06-12T13:14:53.593Z,22.56
2018-06-12T13:15:54.080Z,22.52
2018-06-12T13:17:14.308Z,22.60
2018-06-12T13:17:54.077Z,22.88
2018-06-12T13:18:54.077Z,22.88
2018-06-12T13:19:54.578Z,22.93
2018-06-12T13:20:54.577Z,22.89
2018-06-12T13:21:54.585Z,22.81
2018-06-12T13:23:09.080Z,22.81
2018-06-12T13:24:16.078Z,22.91
2018-06-12T13:25:16.087Z,23.06
2018-06-12T13:25:55.085Z,23.09
2018-06-12T13:26:54.567Z,23.21
2018-06-12T13:28:16.578Z,23.01
2018-06-12T13:28:55.578Z,23.07
2018-06-12T13:29:54.934Z,23.07
2018-06-12T13:30:55.036Z,23.14
2018-06-12T13:31:56.083Z,22.96
2018-06-12T13:32:56.078Z,23.07
2018-06-12T13:33:56.186Z,22.88
2018-06-12T13:34:59.011Z,22.81
2018-06-12T13:36:19.579Z,22.79
2018-06-12T13:37:17.585Z,22.85
2018-06-12T13:37:55.953Z,22.85
2018-06-12T13:39:17.579Z,22.72
2018-06-12T13:43:00.784Z,22.81
2018-06-12T13:44:00.793Z,22.81
2018-06-12T13:45:00.793Z,22.78
2018-06-12T13:46:22.295Z,22.70
2018-06-12T13:47:01.286Z,22.56
2018-06-12T13:48:15.285Z,22.49
2018-06-12T13:49:01.292Z,22.44
2018-06-12T13:50:01.788Z,22.36
2018-06-12T13:51:01.786Z,22.41
2018-06-12T13:52:01.146Z,22.42
2018-06-12T13:53:03.789Z,22.29
2018-06-12T13:54:02.286Z,22.12
2018-06-12T13:55:04.285Z,22.12
2018-06-12T13:56:03.767Z,22.23
2018-06-12T13:57:02.286Z,22.30
2018-06-12T13:58:02.786Z,22.52
2018-06-12T13:59:02.793Z,22.51
2018-06-12T14:00:11.336Z,22.54
2018-06-12T14:01:03.290Z,22.46
2018-06-12T14:02:03.287Z,22.56
2018-06-12T14:03:03.292Z,22.38
2018-06-12T14:04:11.218Z,22.26
2018-06-12T14:05:04.219Z,22.33
2018-06-12T14:07:56.071Z,22.31
2018-06-12T14:08:35.079Z,22.36
2018-06-12T14:09:35.079Z,22.45
2018-06-12T14:10:35.596Z,22.60
2018-06-12T14:11:35.581Z,22.69
2018-06-12T14:12:35.578Z,22.81
2018-06-12T14:13:56.577Z,22.75
2018-06-12T14:16:21.342Z,22.84
2018-06-12T14:17:28.359Z,22.76
2018-06-12T14:18:07.349Z,22.76
2018-06-12T14:19:07.876Z,22.81
2018-06-12T14:21:39.237Z,22.69
2018-06-12T14:22:39.244Z,22.75
2018-06-12T14:23:39.242Z,22.69
2018-06-12T14:24:39.740Z,22.57
2018-06-12T14:26:00.742Z,22.56
2018-06-12T14:26:39.100Z,22.49
2018-06-12T14:27:39.743Z,22.54
2018-06-12T14:29:02.239Z,22.42